Time;durP1;ratioP1;P1;durP2;ratioP2;P2;SDS_P1;SDS_P2;PMS_P1;PMS_P2;Temp;Humidity;BMP_temperature;BMP_pressure;BME280_temperature;BME280_humidity;BME280_pressure;Samples;Min_cycle;Max_cycle;Signal;HPM_P1;HPM_P2
2022/03/21 00:01:16;;;;;;;41.50;20.30;;;1.90;43.80;;;1.63;37.22;96667.28;5069910;28;20469;-57
2022/03/21 00:03:44;;;;;;;38.53;18.60;;;1.90;43.90;;;1.62;38.49;96663.84;5077103;28;20614;-56
2022/03/21 00:06:12;;;;;;;47.67;20.13;;;1.90;44.10;;;1.62;38.33;96669.03;5071766;28;20462;-56
2022/03/21 00:08:39;;;;;;;40.50;18.73;;;1.90;44.30;;;1.60;37.47;96666.47;5071156;28;20458;-55
2022/03/21 00:11:06;;;;;;;44.80;18.33;;;1.90;44.20;;;1.60;37.92;96669.06;5073821;28;20807;-57
2022/03/21 00:13:35;;;;;;;40.10;18.37;;;1.90;44.10;;;1.60;38.08;96670.84;5072202;28;20970;-57
2022/03/21 00:16:03;;;;;;;36.40;17.83;;;1.90;44.00;;;1.57;38.62;96665.72;5071842;28;20554;-56
2022/03/21 00:18:31;;;;;;;40.03;17.33;;;1.90;44.30;;;1.56;38.11;96666.59;5067019;28;20504;-57
2022/03/21 00:20:59;;;;;;;42.27;18.87;;;1.80;45.00;;;1.53;38.96;96664.09;5072786;28;20557;-57
2022/03/21 00:23:27;;;;;;;35.37;18.57;;;1.80;44.60;;;1.52;38.34;96667.56;5073166;28;20469;-55
2022/03/21 00:25:54;;;;;;;38.33;18.13;;;1.80;44.70;;;1.49;38.18;96667.66;5074432;28;21058;-56
2022/03/21 00:28:21;;;;;;;47.03;18.90;;;1.80;44.80;;;1.47;38.79;96661.66;5070493;28;20474;-57
2022/03/21 00:30:49;;;;;;;33.40;17.27;;;1.80;44.70;;;1.45;38.60;96653.91;5071728;28;20465;-56
2022/03/21 00:33:17;;;;;;;33.80;18.00;;;1.70;45.00;;;1.42;38.49;96654.00;5067530;28;20552;-56
2022/03/21 00:35:45;;;;;;;34.97;17.97;;;1.70;45.20;;;1.39;39.04;96649.75;5074127;28;20481;-57
2022/03/21 00:38:17;;;;;;;37.27;17.63;;;1.70;45.40;;;1.38;39.30;96648.06;5068946;28;21044;-57
2022/03/21 00:40:46;;;;;;;46.07;20.47;;;1.70;45.60;;;1.35;39.51;96648.13;5070470;28;20831;-57
2022/03/21 00:43:14;;;;;;;102.60;33.60;;;1.70;46.30;;;1.34;39.20;96649.00;5074643;28;21036;-56
2022/03/21 00:45:42;;;;;;;106.60;37.20;;;1.60;46.20;;;1.32;38.67;96648.22;5073604;28;20486;-56
2022/03/21 00:48:09;;;;;;;47.40;22.30;;;1.60;45.90;;;1.29;39.06;96645.69;5064984;28;20528;-56
2022/03/21 00:50:36;;;;;;;34.53;18.03;;;1.60;46.20;;;1.27;39.34;96642.31;5067069;28;20460;-56
2022/03/21 00:53:04;;;;;;;38.50;17.97;;;1.60;45.80;;;1.27;39.86;96644.03;5068720;28;20482;-57
2022/03/21 00:55:32;;;;;;;36.40;16.13;;;1.60;46.60;;;1.24;39.05;96634.63;5077815;28;20491;-57
2022/03/21 00:58:00;;;;;;;31.60;16.17;;;1.50;45.70;;;1.22;39.34;96636.38;5077330;28;21080;-57
2022/03/21 01:00:29;;;;;;;33.87;15.47;;;1.50;45.90;;;1.21;39.89;96637.28;5068897;28;20454;-56
2022/03/21 01:02:57;;;;;;;27.93;15.33;;;1.50;46.10;;;1.18;39.47;96635.59;5069250;28;20513;-57
2022/03/21 01:05:25;;;;;;;33.73;16.30;;;1.50;46.30;;;1.18;40.27;96642.53;5070857;28;20505;-58
2022/03/21 01:07:52;;;;;;;29.90;14.80;;;1.50;46.50;;;1.15;40.24;96642.63;5076978;28;20487;-56
2022/03/21 01:10:21;;;;;;;32.23;15.20;;;1.50;46.80;;;1.10;40.82;96640.16;5061774;28;20459;-55
2022/03/21 01:12:50;;;;;;;34.83;16.17;;;1.40;46.90;;;1.06;41.10;96634.16;5066510;28;20490;-56
2022/03/21 01:15:18;;;;;;;26.87;13.30;;;1.40;47.30;;;1.04;40.79;96632.53;5071332;28;20459;-57
2022/03/21 01:17:46;;;;;;;29.07;15.50;;;1.40;47.40;;;1.01;40.82;96630.84;5072352;28;20475;-57
2022/03/21 01:20:14;;;;;;;28.23;16.23;;;1.30;46.80;;;0.99;41.98;96630.03;5062708;28;20478;-57
2022/03/21 01:22:42;;;;;;;41.77;19.87;;;1.30;47.90;;;0.95;41.15;96631.00;5066558;28;20477;-58
2022/03/21 01:25:10;;;;;;;37.17;18.73;;;1.30;48.20;;;0.93;39.93;96629.31;5075940;28;20504;-55
2022/03/21 01:27:37;;;;;;;39.90;17.43;;;1.20;47.00;;;0.93;40.02;96625.00;5074346;28;20483;-58
2022/03/21 01:30:09;;;;;;;45.20;19.90;;;1.20;47.00;;;0.92;40.34;96623.31;5066963;28;20978;-57
2022/03/21 01:32:36;;;;;;;41.50;19.33;;;1.20;47.30;;;0.90;40.81;96622.50;5066702;28;20570;-56
2022/03/21 01:35:04;;;;;;;47.47;20.07;;;1.20;47.20;;;0.86;39.76;96611.34;5070823;28;20976;-57
2022/03/21 01:37:32;;;;;;;44.83;20.43;;;1.20;46.90;;;0.85;40.54;96621.75;5072424;28;21017;-57
2022/03/21 01:39:59;;;;;;;42.80;19.97;;;1.10;46.70;;;0.83;40.01;96613.16;5074546;28;20895;-57
2022/03/21 01:42:26;;;;;;;53.03;22.03;;;1.10;46.40;;;0.82;39.82;96609.75;5065460;28;20497;-60
2022/03/21 01:44:55;;;;;;;58.13;23.13;;;1.10;46.40;;;0.82;39.65;96608.88;5073596;28;20495;-56
2022/03/21 01:47:24;;;;;;;63.60;24.83;;;1.10;46.30;;;0.82;40.04;96611.44;5065590;28;20563;-56
2022/03/21 01:49:51;;;;;;;45.57;22.50;;;1.10;46.30;;;0.84;39.66;96604.53;5079424;28;20537;-57
2022/03/21 01:52:20;;;;;;;48.53;22.87;;;1.10;46.30;;;0.83;40.40;96608.81;5064195;28;20482;-55
2022/03/21 01:57:32;;;;;;;46.67;21.47;;;1.10;46.40;;;0.83;39.62;96603.66;5072886;28;21040;-57
2022/03/21 01:59:59;;;;;;;50.30;22.83;;;1.10;47.00;;;0.83;39.89;96602.81;5077255;28;20461;-59
2022/03/21 02:02:28;;;;;;;46.40;21.13;;;1.10;46.30;;;0.83;39.86;96600.22;5065800;28;20916;-59
2022/03/21 02:04:56;;;;;;;45.43;21.40;;;1.10;46.40;;;0.82;40.05;96596.78;5072569;28;20485;-55
2022/03/21 02:07:25;;;;;;;41.73;20.30;;;1.20;46.50;;;0.83;39.91;96603.66;5075381;28;20478;-57
2022/03/21 02:09:52;;;;;;;39.40;18.73;;;1.10;46.60;;;0.82;40.10;96598.50;5075837;28;20483;-57
2022/03/21 02:12:19;;;;;;;43.83;20.10;;;1.10;46.60;;;0.81;40.05;96596.81;5060467;28;20478;-58
2022/03/21 02:14:47;;;;;;;39.70;20.27;;;1.10;46.60;;;0.78;39.62;96607.25;5069246;28;20544;-58
2022/03/21 02:17:17;;;;;;;44.10;20.30;;;1.10;46.60;;;0.76;40.52;96602.13;5073611;28;20490;-57
2022/03/21 02:19:46;;;;;;;54.87;17.53;;;1.10;47.00;;;0.76;39.93;96599.53;5077194;28;20480;-56
2022/03/21 02:22:28;;;;;;;30.47;16.50;;;1.10;47.10;;;0.75;40.12;96607.31;5060840;28;20486;-56
2022/03/21 02:25:04;;;;;;;35.27;16.03;;;1.10;47.10;;;0.76;40.50;96609.00;5064439;28;20558;-56
2022/03/21 02:27:33;;;;;;;24.93;13.73;;;1.10;47.20;;;0.71;41.13;96604.81;5068270;28;20474;-57
2022/03/21 02:30:00;;;;;;;31.80;15.37;;;1.10;47.30;;;0.67;40.38;96615.28;5072460;28;20466;-56
2022/03/21 02:32:28;;;;;;;28.23;15.33;;;1.00;47.10;;;0.62;40.78;96609.34;5074146;28;20479;-56
2022/03/21 02:34:56;;;;;;;28.63;15.20;;;1.00;47.10;;;0.58;41.05;96615.50;5069843;28;20484;-57
2022/03/21 02:37:25;;;;;;;30.70;14.40;;;0.90;47.20;;;0.53;40.25;96620.78;5074468;28;20541;-54
2022/03/21 02:39:52;;;;;;;28.70;16.17;;;0.90;47.20;;;0.49;41.15;96622.56;5075823;28;20478;-56
2022/03/21 02:42:19;;;;;;;27.40;13.73;;;0.80;47.20;;;0.44;40.57;96613.22;5075706;28;20474;-55
2022/03/21 02:44:48;;;;;;;27.50;14.47;;;0.80;47.40;;;0.41;41.21;96624.50;5067403;28;20466;-57
2022/03/21 02:47:15;;;;;;;23.27;14.00;;;0.80;47.40;;;0.37;40.25;96616.81;5072418;28;20466;-54
2022/03/21 02:49:42;;;;;;;30.73;14.83;;;0.70;47.30;;;0.33;41.03;96622.06;5070937;28;20455;-57
2022/03/21 02:52:10;;;;;;;36.77;20.03;;;0.70;47.40;;;0.32;41.04;96625.53;5067434;28;20552;-56
2022/03/21 02:54:38;;;;;;;24.20;14.10;;;0.70;47.70;;;0.31;40.96;96623.84;5063203;28;20461;-57
2022/03/21 02:57:05;;;;;;;29.63;16.20;;;0.60;47.30;;;0.29;40.81;96625.59;5065038;28;20483;-56
2022/03/21 02:59:32;;;;;;;25.57;15.00;;;0.60;47.50;;;0.28;40.52;96628.22;5066950;28;20467;-57
2022/03/21 03:02:02;;;;;;;26.60;14.27;;;0.60;47.60;;;0.24;41.15;96630.03;5070013;28;20482;-56
2022/03/21 03:04:29;;;;;;;28.37;14.50;;;0.60;47.60;;;0.23;41.21;96635.25;5069746;28;20454;-56
2022/03/21 03:06:57;;;;;;;32.10;14.67;;;0.60;47.70;;;0.20;41.72;96638.75;5071923;28;20563;-56
2022/03/21 03:09:24;;;;;;;25.67;14.20;;;0.60;48.00;;;0.20;41.50;96635.31;5074566;28;20477;-56
2022/03/21 03:11:51;;;;;;;28.17;13.70;;;0.60;47.90;;;0.17;42.11;96626.75;5079372;28;20481;-55
2022/03/21 03:14:19;;;;;;;24.83;13.50;;;0.50;48.40;;;0.13;41.34;96621.66;5068692;28;20450;-55
2022/03/21 03:16:46;;;;;;;24.13;13.63;;;0.50;48.00;;;0.10;41.50;96624.31;5070723;28;20865;-57
2022/03/21 03:19:15;;;;;;;24.77;13.40;;;0.50;48.00;;;0.10;41.39;96621.72;5074645;28;20459;-57
2022/03/21 03:21:44;;;;;;;29.37;15.80;;;0.40;47.90;;;0.09;41.03;96627.78;5077270;28;21072;-56
2022/03/21 03:24:12;;;;;;;25.47;13.47;;;0.40;48.10;;;0.06;41.66;96627.84;5074488;28;20459;-56
2022/03/21 03:26:40;;;;;;;27.53;13.63;;;0.40;48.30;;;0.03;41.47;96627.91;5067167;28;20490;-57
2022/03/21 03:29:07;;;;;;;39.20;14.67;;;0.40;48.40;;;-0.01;41.59;96624.53;5066696;28;21011;-57
2022/03/21 03:31:35;;;;;;;30.17;14.90;;;0.30;48.70;;;-0.03;41.62;96624.59;5068044;28;20497;-57
2022/03/21 03:34:02;;;;;;;30.80;15.27;;;0.30;48.50;;;-0.05;41.69;96626.34;5076840;28;20473;-56
2022/03/21 03:36:31;;;;;;;29.63;15.40;;;0.30;48.60;;;-0.05;42.01;96621.19;5064081;28;20510;-56
2022/03/21 03:38:58;;;;;;;26.00;13.63;;;0.30;48.80;;;-0.06;42.19;96621.22;5068777;28;20451;-56
2022/03/21 03:41:27;;;;;;;26.00;14.03;;;0.30;48.70;;;-0.08;41.88;96620.38;5067074;28;20977;-57
2022/03/21 03:43:54;;;;;;;24.57;13.43;;;0.30;48.90;;;-0.10;42.25;96620.41;5075747;28;20458;-57
2022/03/21 03:46:21;;;;;;;27.23;14.13;;;0.30;49.10;;;-0.12;42.55;96619.59;5066727;28;20490;-56
2022/03/21 03:48:49;;;;;;;28.93;14.40;;;0.20;49.20;;;-0.12;42.45;96616.16;5067532;28;20466;-56
2022/03/21 03:51:17;;;;;;;25.43;13.40;;;0.20;49.10;;;-0.15;42.12;96617.06;5073634;28;20453;-55
2022/03/21 03:53:45;;;;;;;21.70;12.33;;;0.20;49.10;;;-0.14;42.04;96616.19;5079119;28;20454;-55
2022/03/21 03:56:12;;;;;;;25.53;13.63;;;0.20;49.10;;;-0.15;42.15;96617.06;5069044;28;20967;-56
2022/03/21 03:58:40;;;;;;;29.30;13.33;;;0.20;49.20;;;-0.14;42.13;96626.53;5069624;28;20458;-55
2022/03/21 04:01:08;;;;;;;27.47;15.10;;;0.20;49.30;;;-0.15;42.39;96609.31;5069110;28;20471;-57
2022/03/21 04:03:47;;;;;;;27.70;12.50;;;0.20;49.60;;;-0.14;42.44;96604.97;5077072;28;20539;-57
2022/03/21 04:06:16;;;;;;;31.50;14.63;;;0.20;49.50;;;-0.16;42.48;96607.59;5068648;28;20488;-57
2022/03/21 04:08:45;;;;;;;26.10;13.10;;;0.20;49.50;;;-0.16;42.30;96607.59;5068378;28;20470;-57
2022/03/21 04:11:13;;;;;;;33.83;15.07;;;0.20;49.50;;;-0.17;42.83;96605.03;5066738;28;20844;-57
2022/03/21 04:13:40;;;;;;;29.73;14.50;;;0.20;50.00;;;-0.20;42.93;96605.97;5069645;28;21028;-56
2022/03/21 04:16:07;;;;;;;25.20;13.90;;;0.20;50.10;;;-0.21;42.77;96604.28;5073260;28;20468;-56
2022/03/21 04:18:36;;;;;;;27.17;13.30;;;0.10;50.10;;;-0.24;42.83;96600.00;5055727;28;20458;-57
2022/03/21 04:21:03;;;;;;;27.67;13.80;;;0.10;50.20;;;-0.24;42.68;96599.16;5072507;28;20469;-57
2022/03/21 04:23:30;;;;;;;25.37;15.17;;;0.10;50.10;;;-0.25;43.02;96597.44;5072616;28;20840;-56
2022/03/21 04:25:59;;;;;;;27.00;13.40;;;0.10;50.30;;;-0.29;43.07;96594.09;5069438;28;20505;-58
2022/03/21 04:28:26;;;;;;;25.97;14.43;;;0.10;50.30;;;-0.31;43.39;96603.63;5063580;28;20482;-57
2022/03/21 04:30:54;;;;;;;34.73;13.50;;;0.10;50.30;;;-0.31;43.40;96607.91;5071636;28;20470;-57
2022/03/21 04:33:21;;;;;;;25.23;13.10;;;0.10;50.30;;;-0.32;43.09;96601.91;5070607;28;20869;-56
2022/03/21 04:35:48;;;;;;;24.50;14.07;;;0.00;50.30;;;-0.33;43.22;96599.34;5078130;28;20450;-56
2022/03/21 04:38:17;;;;;;;28.07;14.10;;;0.00;50.70;;;-0.33;43.85;96605.34;5063565;28;20540;-56
2022/03/21 04:40:46;;;;;;;25.67;14.30;;;0.00;50.90;;;-0.33;43.35;96601.94;5069776;28;20461;-57
2022/03/21 04:43:16;;;;;;;24.13;13.40;;;0.00;50.70;;;-0.33;43.35;96604.50;5072133;28;20463;-55
2022/03/21 04:45:43;;;;;;;30.63;14.10;;;0.00;50.50;;;-0.31;43.63;96597.56;5079666;28;20471;-57
2022/03/21 04:48:11;;;;;;;29.43;15.23;;;0.10;50.80;;;-0.29;43.46;96601.00;5076266;28;20554;-54
2022/03/21 04:50:38;;;;;;;27.60;13.57;;;0.10;51.00;;;-0.26;43.12;96601.78;5066546;28;20851;-55
2022/03/21 04:53:06;;;;;;;26.87;15.10;;;0.10;51.00;;;-0.22;44.47;96599.97;5063512;28;21012;-57
2022/03/21 04:55:34;;;;;;;24.83;14.00;;;0.10;52.00;;;-0.22;43.28;96607.72;5076490;28;20534;-57
2022/03/21 04:58:01;;;;;;;31.77;14.80;;;0.10;51.30;;;-0.20;44.05;96611.16;5082445;28;20575;-56
2022/03/21 05:00:30;;;;;;;26.33;14.30;;;0.10;51.50;;;-0.18;44.90;96609.38;5067464;28;20873;-56
2022/03/21 05:02:57;;;;;;;30.63;14.10;;;0.20;52.40;;;-0.13;47.13;96609.28;5072103;28;20549;-56
2022/03/21 05:05:25;;;;;;;32.60;14.13;;;0.20;55.00;;;0.02;50.04;96610.69;5079597;28;20455;-58
2022/03/21 05:07:54;;;;;;;34.00;15.80;;;0.30;59.80;;;0.18;45.75;96615.50;5079944;28;20474;-57
2022/03/21 05:10:22;;;;;;;32.87;16.30;;;0.50;55.40;;;0.28;43.83;96621.34;5066385;28;20494;-57
2022/03/21 05:12:50;;;;;;;33.27;16.23;;;0.60;53.00;;;0.30;43.84;96622.13;5069726;28;20569;-57
2022/03/21 05:15:17;;;;;;;36.33;18.27;;;0.60;52.00;;;0.39;43.13;96626.28;5077048;28;20545;-57
2022/03/21 05:17:46;;;;;;;29.90;16.53;;;0.70;51.60;;;0.58;42.57;96613.75;5059180;28;20858;-55
2022/03/21 05:20:17;;;;;;;32.07;15.43;;;0.90;51.20;;;0.70;42.91;96616.06;5042746;28;20474;-57
2022/03/21 05:22:44;;;;;;;27.37;15.23;;;1.00;51.00;;;0.77;43.17;96621.09;5060824;28;20486;-56
2022/03/21 05:30:59;;;;;;;27.70;15.30;;;1.10;50.00;;;0.85;42.39;96611.38;5065665;28;20485;-56
2022/03/21 05:36:13;;;;;;;31.53;16.30;;;1.30;50.30;;;1.28;42.17;96620.66;5072168;28;20447;-57
2022/03/21 05:38:40;;;;;;;35.07;14.90;;;1.60;50.40;;;1.45;41.58;96628.00;5068541;28;20476;-59
2022/03/21 05:41:07;;;;;;;36.20;16.60;;;1.80;50.20;;;1.53;42.35;96625.19;5068670;28;20986;-56
2022/03/21 05:43:35;;;;;;;42.23;17.00;;;1.80;49.80;;;1.54;41.43;96624.31;5063242;28;20540;-55
2022/03/21 05:46:03;;;;;;;36.70;16.87;;;1.90;49.90;;;1.56;41.26;96625.13;5070323;28;20504;-54
2022/03/21 05:51:16;;;;;;;53.40;18.40;;;1.90;49.50;;;1.59;41.73;96622.44;5070053;28;21007;-56
2022/03/21 05:53:45;;;;;;;42.67;18.50;;;1.90;49.50;;;1.63;41.51;96626.66;5070286;28;20451;-57
2022/03/21 05:56:12;;;;;;;42.17;18.67;;;1.90;49.40;;;1.68;42.31;96619.59;5071646;28;20442;-57
2022/03/21 05:58:40;;;;;;;40.47;18.13;;;2.00;49.80;;;1.76;40.93;96628.00;5073878;28;21098;-56
2022/03/21 06:01:07;;;;;;;52.70;19.80;;;2.00;49.60;;;1.88;41.29;96628.56;5070465;28;20451;-57
2022/03/21 06:03:35;;;;;;;31.13;18.17;;;2.10;49.70;;;2.02;40.81;96626.44;5064270;28;20481;-56
2022/03/21 06:06:03;;;;;;;40.80;18.20;;;2.20;49.50;;;2.23;40.81;96629.28;5072496;28;20487;-57
2022/03/21 06:08:30;;;;;;;41.97;17.70;;;2.40;49.40;;;2.46;41.29;96631.19;5071608;28;20527;-56
2022/03/21 06:11:04;;;;;;;34.37;18.60;;;2.60;49.10;;;2.72;40.92;96625.19;5072185;28;20526;-58
2022/03/21 06:13:33;;;;;;;51.20;19.90;;;2.80;49.00;;;3.01;40.32;96626.00;5066049;28;21068;-56
2022/03/21 06:16:03;;;;;;;49.30;18.40;;;3.10;48.90;;;3.29;40.06;96625.94;5073255;28;20446;-57
2022/03/21 06:18:31;;;;;;;43.00;19.63;;;3.40;48.60;;;3.55;40.47;96630.25;5076771;28;20545;-56
2022/03/21 06:20:59;;;;;;;40.43;19.07;;;3.60;48.20;;;3.85;39.47;96631.81;5074833;28;20864;-57
2022/03/21 06:23:27;;;;;;;46.40;18.50;;;3.90;47.90;;;4.17;39.12;96628.03;5061808;28;20466;-57
2022/03/21 06:25:54;;;;;;;33.73;17.63;;;4.20;47.50;;;4.49;38.68;96631.16;5067436;28;20468;-61
2022/03/21 06:28:22;;;;;;;43.90;18.23;;;4.50;47.00;;;4.79;38.43;96615.25;5071327;28;21041;-57
2022/03/21 06:30:51;;;;;;;31.57;17.53;;;4.80;46.60;;;5.08;38.08;96626.25;5074199;28;21003;-56
2022/03/21 06:33:19;;;;;;;42.27;17.87;;;5.10;46.30;;;5.44;37.88;96628.25;5059771;28;20559;-57
2022/03/21 06:35:46;;;;;;;32.03;17.97;;;5.40;46.10;;;5.80;37.59;96630.22;5068851;28;20457;-57
2022/03/21 06:38:15;;;;;;;38.30;18.17;;;5.70;45.80;;;6.12;37.25;96628.81;5075879;28;20470;-57
2022/03/21 06:40:42;;;;;;;33.30;19.40;;;6.10;45.10;;;6.45;36.77;96629.03;5079374;28;20457;-57
2022/03/21 06:43:10;;;;;;;40.73;19.80;;;6.40;44.80;;;6.84;36.26;96627.22;5073671;28;20846;-56
2022/03/21 06:45:38;;;;;;;41.43;20.47;;;6.80;44.80;;;7.23;36.44;96618.34;5073518;28;20544;-57
2022/03/21 06:48:05;;;;;;;54.57;19.87;;;7.10;44.30;;;7.61;35.90;96617.38;5077802;28;21008;-56
2022/03/21 06:50:33;;;;;;;48.53;21.07;;;7.50;44.00;;;7.95;35.34;96616.47;5069810;28;20451;-57
2022/03/21 06:53:00;;;;;;;45.87;21.60;;;7.90;43.40;;;8.32;34.22;96621.50;5076472;28;20474;-56
2022/03/21 06:55:30;;;;;;;38.50;21.27;;;8.20;42.10;;;8.61;34.21;96618.19;5071381;28;20453;-57
2022/03/21 06:57:57;;;;;;;44.13;20.43;;;8.50;42.00;;;8.89;33.60;96619.28;5070801;28;20604;-57
2022/03/21 07:00:24;;;;;;;39.90;19.10;;;8.80;41.30;;;9.20;33.84;96614.06;5079038;28;20826;-58
2022/03/21 07:02:52;;;;;;;30.80;18.60;;;9.10;41.90;;;9.56;32.98;96613.72;5077238;28;20528;-57
2022/03/21 07:05:19;;;;;;;45.77;19.67;;;9.40;40.80;;;9.85;33.04;96621.63;5068215;28;20985;-56
2022/03/21 07:07:47;;;;;;;50.80;20.73;;;9.70;40.50;;;10.09;32.83;96614.06;5075090;28;20949;-56
2022/03/21 07:10:15;;;;;;;41.43;20.30;;;10.00;39.50;;;10.39;32.39;96621.00;5078799;28;20916;-56
2022/03/21 07:12:43;;;;;;;36.40;19.77;;;10.20;39.30;;;10.76;32.19;96613.44;5082039;28;20467;-56
2022/03/21 07:15:11;;;;;;;30.30;16.40;;;10.60;38.70;;;11.08;31.47;96614.00;5071816;28;20450;-55
2022/03/21 07:17:39;;;;;;;39.33;17.33;;;10.80;38.00;;;11.15;30.85;96603.91;5069673;28;20908;-56
2022/03/21 07:20:08;;;;;;;28.17;15.83;;;11.00;37.00;;;11.31;30.95;96598.50;5078328;28;20455;-55
2022/03/21 07:22:35;;;;;;;22.33;13.00;;;11.20;36.90;;;11.59;28.86;96596.66;5078954;28;21029;-56
2022/03/21 07:25:03;;;;;;;23.00;12.43;;;11.50;34.40;;;11.78;29.15;96599.72;5069622;28;20458;-56
2022/03/21 07:27:30;;;;;;;19.40;11.97;;;11.60;34.10;;;11.95;28.95;96595.97;5072489;28;20591;-56
2022/03/21 07:29:59;;;;;;;19.33;12.13;;;11.80;34.40;;;12.08;26.86;96592.47;5077666;28;20845;-58
2022/03/21 07:32:26;;;;;;;18.10;12.40;;;11.90;31.80;;;12.28;28.54;96589.28;5079375;28;20980;-58
2022/03/21 07:34:53;;;;;;;15.20;10.73;;;12.00;33.70;;;12.66;28.42;96587.53;5075769;28;20457;-57
2022/03/21 07:37:21;;;;;;;15.10;10.30;;;12.30;34.20;;;13.07;27.88;96588.94;5073402;28;20477;-56
2022/03/21 07:39:48;;;;;;;28.37;11.40;;;12.80;33.60;;;13.52;27.01;96585.66;5063687;28;20521;-57
2022/03/21 07:42:16;;;;;;;13.90;10.80;;;13.10;33.00;;;13.75;26.91;96576.00;5072328;28;20481;-58
2022/03/21 07:47:30;;;;;;;15.57;10.13;;;13.70;32.70;;;14.39;26.43;96585.19;5081248;28;20615;-61
2022/03/21 07:49:57;;;;;;;13.63;9.10;;;14.20;31.70;;;15.02;26.32;96577.53;5072357;28;20455;-58
2022/03/21 07:52:24;;;;;;;12.70;9.43;;;14.80;31.90;;;15.62;25.38;96567.28;5074782;28;20477;-56
2022/03/21 07:54:54;;;;;;;23.10;14.50;;;15.40;29.90;;;16.05;25.21;96562.78;5081573;28;20483;-57
2022/03/21 07:57:21;;;;;;;22.63;14.37;;;15.90;31.00;;;16.37;24.80;96565.31;5072171;28;20470;-57
2022/03/21 07:59:49;;;;;;;17.70;12.80;;;16.40;30.00;;;16.64;24.20;96559.41;5074958;28;20446;-58
2022/03/21 08:02:17;;;;;;;18.93;13.20;;;16.70;29.00;;;16.87;23.73;96556.56;5077451;28;20473;-57
2022/03/21 08:04:47;;;;;;;20.17;13.00;;;16.90;28.10;;;17.17;24.42;96552.13;5071506;28;20461;-57
2022/03/21 08:07:14;;;;;;;24.53;13.40;;;17.30;29.50;;;17.64;24.07;96557.53;5078090;28;20525;-57
2022/03/21 08:09:42;;;;;;;20.00;12.67;;;17.70;29.20;;;18.07;23.07;96555.38;5082178;28;20451;-57
2022/03/21 08:12:11;;;;;;;18.73;13.03;;;18.10;29.00;;;18.46;22.60;96552.56;5071705;28;20470;-55
2022/03/21 08:14:38;;;;;;;21.00;14.37;;;18.40;28.60;;;18.78;21.65;96544.13;5077596;28;20463;-60
2022/03/21 08:17:06;;;;;;;25.60;14.20;;;18.70;26.10;;;18.93;22.33;96556.97;5074312;28;20817;-59
2022/03/21 08:19:33;;;;;;;19.00;12.20;;;18.90;27.70;;;19.00;21.57;96555.38;5070921;28;20450;-57
2022/03/21 08:22:03;;;;;;;22.53;11.73;;;19.10;27.40;;;18.85;21.03;96560.38;5074546;28;20470;-56
2022/03/21 08:24:33;;;;;;;38.43;12.57;;;19.10;26.40;;;18.69;21.54;96552.19;5079581;28;20481;-57
2022/03/21 08:27:00;;;;;;;15.33;11.70;;;19.00;26.50;;;18.70;22.36;96545.84;5072995;28;20866;-57
2022/03/21 08:29:28;;;;;;;17.63;11.13;;;19.00;26.80;;;18.79;21.89;96547.63;5080302;28;20773;-57
2022/03/21 08:31:55;;;;;;;18.53;12.40;;;19.00;26.30;;;18.74;20.69;96555.22;5073983;28;20470;-59
2022/03/21 08:34:22;;;;;;;13.27;11.23;;;19.10;25.90;;;18.83;20.36;96548.19;5074053;28;20453;-59
2022/03/21 08:36:50;;;;;;;19.63;11.40;;;19.10;25.50;;;18.85;20.79;96544.38;5081190;28;20466;-58
2022/03/21 08:39:19;;;;;;;16.80;11.80;;;19.10;25.70;;;18.86;20.27;96543.41;5072390;28;20446;-57
2022/03/21 08:41:46;;;;;;;19.37;12.17;;;19.00;25.00;;;18.78;20.57;96551.28;5075508;28;20516;-56
2022/03/21 08:44:13;;;;;;;16.10;12.00;;;18.90;24.90;;;18.57;20.68;96541.69;5080989;28;20477;-57
2022/03/21 08:46:41;;;;;;;19.80;11.50;;;18.70;25.40;;;18.43;20.61;96536.88;5073817;28;20478;-57
2022/03/21 08:49:27;;;;;;;15.53;10.83;;;18.50;24.80;;;18.37;20.20;96534.81;5074235;28;20457;-57
2022/03/21 08:51:55;;;;;;;17.40;11.60;;;18.30;25.30;;;17.82;20.90;96531.03;5080358;28;20471;-56
2022/03/21 08:54:24;;;;;;;16.57;12.43;;;17.90;25.30;;;17.32;19.89;96523.25;5071554;28;20482;-57
2022/03/21 08:56:51;;;;;;;25.27;12.33;;;17.40;24.30;;;16.95;20.95;96521.31;5075959;28;20480;-58
2022/03/21 08:59:18;;;;;;;27.47;10.13;;;17.00;25.30;;;16.76;20.49;96522.94;5080174;28;20854;-57
2022/03/21 09:01:46;;;;;;;19.93;9.60;;;16.80;25.20;;;16.71;21.23;96517.19;5069361;28;20637;-58
2022/03/21 09:04:13;;;;;;;15.50;9.53;;;16.60;25.50;;;16.84;20.03;96525.75;5076202;28;20497;-57
2022/03/21 09:06:41;;;;;;;20.73;9.63;;;16.60;24.70;;;16.85;20.93;96514.16;5079772;28;20469;-57
2022/03/21 09:09:08;;;;;;;16.33;10.00;;;16.60;25.20;;;16.87;20.36;96516.69;5069452;28;20450;-57
2022/03/21 09:11:37;;;;;;;10.00;8.40;;;16.70;25.10;;;16.84;20.14;96536.38;5077710;28;20474;-58
2022/03/21 09:14:06;;;;;;;21.20;9.40;;;16.60;25.00;;;16.74;20.92;96529.34;5072562;28;20470;-58
2022/03/21 09:16:34;;;;;;;19.90;10.57;;;16.60;25.30;;;16.66;19.56;96519.41;5066574;28;20853;-59
2022/03/21 09:19:01;;;;;;;12.23;8.90;;;16.50;24.50;;;16.51;19.86;96524.25;5079265;28;20961;-56
2022/03/21 09:21:28;;;;;;;15.53;9.83;;;16.30;24.60;;;16.39;20.34;96523.56;5072186;28;20868;-57
2022/03/21 09:23:56;;;;;;;13.63;10.23;;;16.20;24.80;;;16.37;20.13;96522.81;5072585;28;20461;-55
2022/03/21 09:26:23;;;;;;;17.00;8.90;;;16.10;24.70;;;16.29;20.82;96531.47;5072194;28;20956;-58
2022/03/21 09:28:59;;;;;;;16.17;9.63;;;16.10;25.20;;;16.05;20.86;96534.47;5067348;28;21339;-57
2022/03/21 09:31:27;;;;;;;13.77;9.27;;;16.00;25.50;;;15.86;21.39;96519.25;5071885;28;20537;-57
2022/03/21 09:33:54;;;;;;;11.13;8.90;;;15.70;25.60;;;15.89;20.93;96518.16;5078990;28;20522;-56
2022/03/21 09:36:21;;;;;;;13.63;8.13;;;15.60;25.50;;;15.85;21.04;96527.34;5067511;28;20443;-57
2022/03/21 09:38:49;;;;;;;16.50;9.80;;;15.60;25.50;;;15.85;20.99;96522.03;5071693;28;20462;-57
2022/03/21 09:41:22;;;;;;;10.97;8.80;;;15.60;25.50;;;15.65;20.46;96523.75;5081516;28;20550;-57
2022/03/21 09:43:51;;;;;;;14.40;9.23;;;15.50;25.00;;;15.50;21.37;96513.44;5070299;28;20437;-56
2022/03/21 09:46:20;;;;;;;26.60;9.67;;;15.40;25.20;;;15.42;21.10;96505.31;5073265;28;20483;-57
2022/03/21 09:48:48;;;;;;;14.77;9.47;;;15.30;25.40;;;15.55;21.15;96505.09;5079651;28;20574;-57
2022/03/21 09:51:17;;;;;;;14.13;9.70;;;15.30;25.70;;;15.62;20.85;96516.88;5066000;28;20545;-55
2022/03/21 09:53:44;;;;;;;26.10;9.17;;;15.40;25.50;;;15.64;21.18;96520.22;5073198;28;20969;-57
2022/03/21 09:56:12;;;;;;;18.40;9.07;;;15.40;25.80;;;15.63;20.79;96510.63;5078346;28;20997;-56
2022/03/21 09:58:39;;;;;;;11.30;8.10;;;15.50;25.70;;;15.61;20.85;96507.22;5070246;28;20811;-56
2022/03/21 10:01:08;;;;;;;12.33;8.80;;;15.50;25.40;;;15.64;20.52;96508.78;5074784;28;20442;-58
2022/03/21 10:03:35;;;;;;;15.23;9.47;;;15.40;24.80;;;15.63;20.91;96502.66;5071230;28;20545;-57
2022/03/21 10:06:03;;;;;;;18.23;9.57;;;15.40;25.00;;;15.55;20.85;96503.31;5070960;28;20454;-56
2022/03/21 10:08:30;;;;;;;17.50;10.40;;;15.40;25.40;;;15.25;20.78;96504.06;5074214;28;20493;-57
2022/03/21 10:11:01;;;;;;;15.17;10.27;;;15.20;24.90;;;15.24;21.48;96492.63;5070987;28;20481;-57
2022/03/21 10:13:31;;;;;;;21.63;9.70;;;15.10;25.90;;;15.26;21.03;96500.47;5071176;28;20471;-57
2022/03/21 10:16:13;;;;;;;16.83;9.17;;;15.00;25.60;;;15.16;21.00;96508.31;5076394;28;20820;-57
2022/03/21 10:18:56;;;;;;;20.13;8.40;;;15.00;25.80;;;15.12;20.60;96506.91;5073999;28;20451;-56
2022/03/21 10:21:24;;;;;;;11.37;8.83;;;15.00;25.20;;;15.18;21.17;96506.41;5071384;28;20537;-58
2022/03/21 10:23:59;;;;;;;14.63;9.23;;;15.00;25.70;;;15.24;21.19;96497.06;5076304;28;20454;-57
2022/03/21 10:26:28;;;;;;;10.83;7.90;;;15.00;25.80;;;15.12;21.34;96500.75;5064736;28;20450;-57
2022/03/21 10:28:56;;;;;;;12.33;8.83;;;14.90;25.60;;;14.94;21.65;96498.66;5072320;28;20521;-58
2022/03/21 10:31:37;;;;;;;16.10;9.83;;;14.80;25.70;;;14.92;22.07;96497.09;5078647;28;20959;-57
2022/03/21 10:34:05;;;;;;;17.50;8.83;;;14.80;26.40;;;15.04;21.96;96485.47;5066617;28;20454;-57
2022/03/21 10:36:32;;;;;;;18.67;9.83;;;14.80;26.70;;;15.08;22.18;96480.78;5073781;28;20867;-57